Campanya meteocatpedra

Dades EMA Dosrius - PN Montnegre Corredor

?
?
Resum diari
Dades diàries de l'estació meteorològica
Temperatura mitjana 6.5 °C
Temperatura màxima 11.8 °C 12:35 TU
Temperatura mínima 1.6 °C 6:07 TU
Humitat relativa mitjana 88%
Precipitació acumulada 20.6 mm
Ratxa màxima del vent (2 m) 36.4 km/h - 181º 6:18 TU
Irradiació solar global 14.9 MJ/m2

El tram horari està expressat en Temps Universal (TU). Cal sumar una hora en horari d'hivern i dues en horari d'estiu per passar a l'hora oficial.

Dosrius - PN Montnegre Corredor

Metadades estació meteorol´gica
Municipi Dosrius
Comarca Maresme
Altitud 460 m
Data alta 09.08.1996
Estat actual Operativa
Dades de període
Període
TU
TM
°C
TX
°C
TN
°C
HRM
%
PPT
mm
VVM (2 m)
km/h
DVM (2 m)
graus
VVX (2 m)
km/h
RS
W/m2
00:00 - 00:30 7.2 7.4 5.6 98 1.9 2.5 21 10.8 0
00:30 - 01:00 5.7 6.1 5.5 99 3.0 2.5 28 6.5 0
01:00 - 01:30 6.4 6.6 6.1 99 2.8 1.1 359 4.0 0
01:30 - 02:00 7.0 7.6 6.7 100 3.7 2.5 41 10.8 0
02:00 - 02:30 6.9 7.3 6.4 99 3.5 4.3 164 11.5 0
02:30 - 03:00 5.6 6.4 4.6 99 1.5 4.7 187 13.3 0
03:00 - 03:30 3.9 4.6 3.5 99 1.5 5.8 193 15.1 0
03:30 - 04:00 3.4 3.8 3.2 100 0.4 7.9 190 20.2 0
04:00 - 04:30 3.2 3.2 3.1 100 0.0 7.6 191 18.7 0
04:30 - 05:00 3.0 3.1 2.8 100 0.6 8.3 189 18.0 0
05:00 - 05:30 2.4 2.8 1.9 100 0.4 11.2 194 23.4 0
05:30 - 06:00 1.8 2.0 1.7 100 0.6 11.5 197 25.9 0
06:00 - 06:30 1.7 1.8 1.6 100 0.5 14.4 196 36.4 5
06:30 - 07:00 2.1 2.3 1.8 100 0.2 12.6 196 28.8 24
07:00 - 07:30 2.3 2.4 2.3 100 0.0 8.3 186 22.3 42
07:30 - 08:00 2.7 2.9 2.4 99 0.0 5.8 165 16.9 110
08:00 - 08:30 3.4 3.8 2.9 98 0.0 6.5 176 17.6 169
08:30 - 09:00 4.1 4.7 3.8 96 0.0 6.1 176 16.6 200
09:00 - 09:30 5.1 6.1 4.6 94 0.0 5.8 187 15.8 302
09:30 - 10:00 6.2 6.8 5.9 93 0.0 5.8 187 13.3 330
10:00 - 10:30 7.1 8.0 6.6 92 0.0 4.7 171 13.0 423
10:30 - 11:00 8.4 9.4 7.9 87 0.0 6.5 175 16.6 749
11:00 - 11:30 9.3 9.9 8.8 81 0.0 7.2 174 18.4 800
11:30 - 12:00 9.5 9.9 9.1 80 0.0 6.5 168 15.1 515
12:00 - 12:30 10.0 11.2 9.6 79 0.0 7.2 156 17.6 526
12:30 - 13:00 11.4 11.8 10.9 71 0.0 7.9 137 24.1 848
13:00 - 13:30 10.7 11.5 10.0 73 0.0 7.9 141 25.6 420
13:30 - 14:00 10.4 10.8 10.0 78 0.0 8.3 132 22.3 473
14:00 - 14:30 10.4 10.7 10.0 77 0.0 9.7 147 27.7 515
14:30 - 15:00 10.6 11.0 10.2 76 0.0 9.0 143 28.1 494
15:00 - 15:30 10.7 11.3 10.4 72 0.0 11.5 168 30.2 522
15:30 - 16:00 10.8 11.2 10.4 67 0.0 10.4 166 24.8 420
16:00 - 16:30 9.9 10.6 9.6 70 0.0 8.3 195 27.7 159
16:30 - 17:00 9.3 9.6 9.1 68 0.0 2.5 183 8.3 106
17:00 - 17:30 9.0 9.2 8.7 69 0.0 2.5 160 6.1 91
17:30 - 18:00 8.2 8.6 7.8 73 0.0 2.9 151 5.8 33
18:00 - 18:30 7.0 7.7 6.2 81 0.0 1.1 110 5.0 3
18:30 - 19:00 6.1 6.2 5.9 85 0.0 1.8 36 4.3 0
19:00 - 19:30 6.0 6.3 5.8 83 0.0 1.4 44 4.0 0
19:30 - 20:00 5.7 5.9 5.5 86 0.0 1.8 45 3.6 0
20:00 - 20:30 5.7 5.8 5.5 87 0.0 1.8 39 3.6 0
20:30 - 21:00 5.7 5.8 5.6 88 0.0 2.2 30 4.7 0
21:00 - 21:30 5.9 6.4 5.6 88 0.0 1.4 51 7.2 0
21:30 - 22:00 5.9 6.3 5.5 88 0.0 2.2 23 4.0 0
22:00 - 22:30 5.4 5.6 5.2 92 0.0 1.8 35 3.6 0
22:30 - 23:00 5.8 6.2 5.4 92 0.0 1.8 23 3.6 0

Les dades en taronja només han passat un control de qualitat automàtic. Resta pendent la seva validació definitiva.